Time;durP1;ratioP1;P1;durP2;ratioP2;P2;SDS_P1;SDS_P2;PMS_P1;PMS_P2;Temp;Humidity;BMP_temperature;BMP_pressure;BME280_temperature;BME280_humidity;BME280_pressure;Samples;Min_cycle;Max_cycle;Signal;HPM_P1;HPM_P2
2022/06/10 00:01:13;;;;;;;3.95;2.75;;;;;;;25.03;49.53;100003.49;1714835;82;21790;-86
2022/06/10 00:03:40;;;;;;;3.20;2.40;;;;;;;25.03;49.54;100002.09;1735520;81;21108;-86
2022/06/10 00:06:07;;;;;;;3.22;2.65;;;;;;;25.03;49.54;99999.31;1735807;81;22149;-86
2022/06/10 00:08:38;;;;;;;3.25;2.50;;;;;;;25.02;49.55;99998.51;1735714;81;21052;-86
2022/06/10 00:11:07;;;;;;;3.33;2.70;;;;;;;25.01;49.57;100000.48;1734933;82;22303;-86
2022/06/10 00:13:35;;;;;;;3.62;2.70;;;;;;;25.01;49.56;100002.45;1735034;82;20977;-86
2022/06/10 00:16:02;;;;;;;2.80;2.50;;;;;;;25.02;49.58;100005.47;1735618;81;21025;-86
2022/06/10 00:18:29;;;;;;;3.80;2.42;;;;;;;25.01;49.58;100005.23;1735435;81;21551;-86
2022/06/10 00:20:56;;;;;;;3.22;2.60;;;;;;;25.01;49.62;100011.61;1735803;81;21076;-85
2022/06/10 00:23:23;;;;;;;4.33;2.50;;;;;;;25.01;49.61;100002.45;1735709;82;21001;-85
2022/06/10 00:25:55;;;;;;;2.80;2.55;;;;;;;25.01;49.62;100010.80;1735511;81;21252;-85
2022/06/10 00:28:22;;;;;;;3.92;2.37;;;;;;;25.01;49.63;100008.83;1735599;81;20994;-86
2022/06/10 00:30:49;;;;;;;3.58;2.50;;;;;;;25.01;49.64;100003.84;1735594;81;21646;-85
2022/06/10 00:33:16;;;;;;;3.15;2.72;;;;;;;25.00;49.65;100003.63;1735274;81;21056;-86
2022/06/10 00:35:42;;;;;;;2.90;2.42;;;;;;;25.01;49.67;100013.59;1735597;81;21057;-86
2022/06/10 00:38:10;;;;;;;3.15;2.37;;;;;;;25.00;49.66;100015.56;1737827;82;20978;-85
2022/06/10 00:40:42;;;;;;;3.77;2.72;;;;;;;25.00;49.69;100021.13;1714454;82;21079;-85
2022/06/10 00:43:13;;;;;;;3.85;2.52;;;;;;;25.00;49.67;100024.49;1735554;81;21065;-86
2022/06/10 00:46:11;;;;;;;3.00;2.58;;;;;;;25.00;49.68;100030.87;1733972;82;21084;-86
2022/06/10 00:49:07;;;;;;;3.20;2.37;;;;;;;25.00;49.70;100025.88;1735815;81;21092;-86
2022/06/10 00:51:55;;;;;;;4.10;2.40;;;;;;;24.99;49.69;100021.52;1735530;81;21166;-86
2022/06/10 00:54:39;;;;;;;3.12;2.55;;;;;;;24.98;49.69;100023.48;1735715;82;21070;-85
2022/06/10 00:57:27;;;;;;;3.00;2.52;;;;;;;24.98;49.71;100023.48;1735498;81;21020;-86
2022/06/10 01:00:01;;;;;;;3.45;2.60;;;;;;;24.97;49.72;100030.22;1735810;81;21045;-86
2022/06/10 01:02:35;;;;;;;3.70;2.40;;;;;;;24.97;49.72;100026.05;1735412;81;21060;-86
2022/06/10 01:04:58;;;;;;;3.40;2.55;;;;;;;24.97;49.74;100028.02;1733850;82;22389;-86
2022/06/10 01:07:31;;;;;;;3.47;2.77;;;;;;;24.96;49.77;100020.83;1735805;81;21557;-86
2022/06/10 01:09:59;;;;;;;2.60;2.40;;;;;;;24.96;49.78;100024.42;1735600;82;21001;-86
2022/06/10 01:13:10;;;;;;;3.15;2.45;;;;;;;24.96;49.78;100029.98;1735910;81;21065;-86
2022/06/10 01:15:55;;;;;;;;;;;;;;;24.96;49.80;100027.20;1738142;82;21017;-86
2022/06/10 01:18:48;;;;;;;3.10;2.35;;;;;;;24.95;49.81;100027.59;1735874;82;21207;-85
2022/06/10 01:21:44;;;;;;;4.20;2.58;;;;;;;24.94;49.78;100023.19;1722810;82;21075;-85
2022/06/10 01:24:37;;;;;;;2.58;2.17;;;;;;;24.93;49.77;100022.96;1735174;82;21471;-86
2022/06/10 01:30:59;;;;;;;2.80;2.30;;;;;;;24.91;49.84;100016.95;1735763;81;21005;-86
2022/06/10 01:33:52;;;;;;;3.17;2.20;;;;;;;24.91;49.83;100018.34;1735739;82;21539;-86
2022/06/10 01:36:33;;;;;;;3.20;2.42;;;;;;;24.90;49.85;100016.75;1726123;81;21440;-85
2022/06/10 01:39:04;;;;;;;2.90;2.37;;;;;;;24.89;49.88;100015.12;1735605;81;21080;-86
2022/06/10 01:42:06;;;;;;;2.85;2.55;;;;;;;24.88;49.89;100025.45;1735704;81;21065;-86
2022/06/10 01:45:09;;;;;;;3.35;2.42;;;;;;;24.89;49.96;100031.82;1735298;82;21005;-86
2022/06/10 01:48:06;;;;;;;2.90;2.60;;;;;;;24.89;49.94;100039.59;1735518;82;21753;-86
2022/06/10 01:50:53;;;;;;;2.90;2.42;;;;;;;24.87;49.96;100028.58;1714134;82;22239;-86
2022/06/10 01:53:53;;;;;;;2.80;2.30;;;;;;;24.88;49.95;100039.94;1678779;81;21605;-86
2022/06/10 01:56:26;;;;;;;4.17;2.50;;;;;;;24.88;49.97;100037.97;1735430;81;21001;-86
2022/06/10 01:59:04;;;;;;;2.98;2.37;;;;;;;24.87;49.97;100035.55;1735899;81;21566;-86
2022/06/10 02:01:34;;;;;;;3.72;2.37;;;;;;;24.87;49.98;100032.76;1734076;81;21251;-86
2022/06/10 02:04:23;;;;;;;2.75;2.42;;;;;;;24.86;49.99;100034.77;1735983;81;21514;-86
2022/06/10 02:07:06;;;;;;;2.62;2.37;;;;;;;24.89;50.02;100039.59;1735493;81;21060;-86
2022/06/10 02:09:44;;;;;;;3.70;2.50;;;;;;;24.86;50.00;100036.16;1735926;81;21057;-86
2022/06/10 02:12:25;;;;;;;4.42;2.50;;;;;;;24.87;50.00;100035.55;1734436;82;21029;-86
2022/06/10 02:15:02;;;;;;;3.02;2.58;;;;;;;24.88;50.00;100040.75;1735513;82;21060;-86
2022/06/10 02:17:34;;;;;;;3.12;2.30;;;;;;;24.87;50.03;100042.50;1735393;81;20993;-86
2022/06/10 02:20:01;;;;;;;3.60;2.40;;;;;;;24.88;50.02;100043.53;1734647;80;20994;-87
2022/06/10 02:22:37;;;;;;;2.80;2.17;;;;;;;24.86;50.03;100040.33;1735742;81;21542;-86
2022/06/10 02:25:18;;;;;;;3.02;2.47;;;;;;;24.88;50.04;100053.27;1735518;82;21084;-87
2022/06/10 02:27:52;;;;;;;3.15;2.60;;;;;;;24.88;50.03;100058.03;1735739;81;21168;-85
2022/06/10 02:30:31;;;;;;;3.55;2.83;;;;;;;24.88;50.03;100057.45;1735581;82;21049;-86
2022/06/10 02:32:57;;;;;;;3.10;2.47;;;;;;;24.88;50.03;100053.27;1736063;81;21033;-87
2022/06/10 02:35:26;;;;;;;4.12;2.77;;;;;;;24.88;50.02;100062.20;1735688;81;22891;-86
2022/06/10 02:38:12;;;;;;;3.55;2.65;;;;;;;24.88;50.04;100061.63;1739311;81;21427;-86
2022/06/10 02:40:52;;;;;;;3.55;2.25;;;;;;;24.88;50.03;100064.98;1744304;82;21186;-86
2022/06/10 02:43:33;;;;;;;4.03;2.67;;;;;;;24.88;50.03;100067.77;1743174;82;21038;-86
2022/06/10 02:46:15;;;;;;;;;;;;;;;24.88;50.03;100069.16;1738752;81;21630;-86
2022/06/10 02:49:10;;;;;;;2.75;2.35;;;;;;;24.87;50.03;100074.49;1736342;82;20198;-86
2022/06/10 02:51:37;;;;;;;2.45;2.25;;;;;;;24.87;50.01;100074.49;1736525;82;21669;-87
2022/06/10 02:54:08;;;;;;;3.15;2.42;;;;;;;24.85;50.00;100069.86;1736107;82;21821;-87
2022/06/10 02:56:34;;;;;;;3.02;2.60;;;;;;;24.85;50.02;100074.87;1735902;82;21067;-85
2022/06/10 03:02:26;;;;;;;2.90;2.35;;;;;;;24.85;50.02;100077.66;1717923;82;21488;-87
2022/06/10 03:05:01;;;;;;;2.80;2.27;;;;;;;24.86;50.05;100079.28;1735575;82;21096;-86
2022/06/10 03:07:58;;;;;;;3.05;2.52;;;;;;;24.86;50.01;100082.64;1735455;82;21152;-86
2022/06/10 03:10:45;;;;;;;4.35;2.60;;;;;;;24.85;50.04;100089.34;1735316;81;21044;-85
2022/06/10 03:13:50;;;;;;;4.35;2.62;;;;;;;24.85;50.02;100090.18;1735387;82;21056;-86
2022/06/10 03:16:39;;;;;;;3.12;2.42;;;;;;;24.84;50.04;100091.31;1735170;82;21136;-85
2022/06/10 03:19:35;;;;;;;2.62;2.22;;;;;;;24.84;50.02;100096.88;1735787;81;21029;-86
2022/06/10 03:22:52;;;;;;;2.60;2.27;;;;;;;24.84;50.03;100097.45;1726907;82;21960;-86
2022/06/10 03:25:38;;;;;;;3.10;2.50;;;;;;;24.84;50.05;100101.05;1737639;81;21080;-86
2022/06/10 03:28:16;;;;;;;3.02;2.52;;;;;;;24.84;50.02;100104.41;1694805;82;21045;-85
2022/06/10 03:30:47;;;;;;;3.98;2.87;;;;;;;24.83;50.03;100099.43;1735863;81;21542;-85
2022/06/10 03:33:34;;;;;;;3.50;2.40;;;;;;;24.83;50.06;100099.43;1735398;82;21053;-86
2022/06/10 03:36:10;;;;;;;3.75;2.20;;;;;;;24.84;50.06;100105.80;1735847;81;20981;-85
2022/06/10 03:38:43;;;;;;;3.25;2.37;;;;;;;24.83;50.07;100102.21;1739712;81;21041;-85
2022/06/10 03:41:20;;;;;;;3.10;2.52;;;;;;;24.84;50.07;100103.02;1743689;82;21524;-85
2022/06/10 03:43:46;;;;;;;2.85;2.37;;;;;;;24.83;50.08;100099.43;1738487;82;21048;-85
2022/06/10 03:46:12;;;;;;;2.80;2.30;;;;;;;24.84;50.09;100102.44;1714887;82;21554;-85
2022/06/10 03:48:42;;;;;;;3.85;2.70;;;;;;;24.84;50.11;100101.05;1715018;82;21064;-85
2022/06/10 03:51:09;;;;;;;2.80;2.15;;;;;;;24.85;50.11;100097.69;1735591;82;21443;-85
2022/06/10 03:53:35;;;;;;;4.17;2.40;;;;;;;24.84;50.13;100096.88;1735763;81;21091;-85
2022/06/10 03:56:02;;;;;;;4.55;2.50;;;;;;;24.86;50.12;100104.32;1735672;81;21005;-85
2022/06/10 03:58:28;;;;;;;7.47;3.25;;;;;;;24.86;50.11;100105.72;1753031;80;21109;-85
2022/06/10 04:00:56;;;;;;;7.22;4.47;;;;;;;24.84;50.17;100112.18;1758779;79;21106;-84
2022/06/10 04:03:22;;;;;;;7.42;4.87;;;;;;;24.79;50.26;100124.16;1774583;79;21908;-82
2022/06/10 04:05:49;;;;;;;7.42;4.50;;;;;;;24.70;50.44;100118.80;1739831;80;21080;-85
2022/06/10 04:08:15;;;;;;;8.28;5.28;;;;;;;24.61;50.64;100117.40;1770925;80;21058;-85
2022/06/10 04:10:42;;;;;;;126.00;11.88;;;;;;;24.56;50.75;100124.05;1759369;79;21020;-86
2022/06/10 04:13:10;;;;;;;69.70;8.33;;;;;;;24.49;50.96;100123.27;1756963;80;21175;-85
2022/06/10 04:15:36;;;;;;;10.32;4.50;;;;;;;24.46;51.13;100131.53;1765024;80;21126;-83
2022/06/10 04:18:04;;;;;;;7.70;5.28;;;;;;;24.47;51.13;100136.74;1765442;80;21056;-86
2022/06/10 04:20:34;;;;;;;9.23;6.42;;;;;;;24.46;51.17;100128.17;1742370;80;20957;-86
2022/06/10 04:23:01;;;;;;;8.83;6.30;;;;;;;24.39;51.31;100129.98;1741976;80;21527;-86
2022/06/10 04:25:27;;;;;;;11.00;6.45;;;;;;;24.25;51.52;100130.42;1743006;81;21826;-86
2022/06/10 04:27:54;;;;;;;11.70;5.65;;;;;;;24.12;51.78;100125.50;1742781;81;21056;-84
2022/06/10 04:30:28;;;;;;;10.68;6.30;;;;;;;24.02;52.09;100134.92;1751361;80;21229;-85
2022/06/10 04:32:54;;;;;;;10.55;5.70;;;;;;;23.93;52.40;100138.48;1758899;80;21455;-86
2022/06/10 04:35:22;;;;;;;9.70;6.60;;;;;;;23.81;52.66;100131.58;1749836;80;21037;-85
2022/06/10 04:37:48;;;;;;;7.10;6.37;;;;;;;23.75;52.84;100132.44;1770621;80;21102;-86
2022/06/10 04:40:17;;;;;;;7.87;6.35;;;;;;;23.73;52.99;100136.72;1768918;80;21518;-87
2022/06/10 04:42:45;;;;;;;10.58;7.37;;;;;;;23.71;53.20;100144.61;1759748;80;21052;-87
2022/06/10 04:45:11;;;;;;;10.23;6.72;;;;;;;23.70;53.35;100149.35;1763325;79;21541;-85
2022/06/10 04:47:38;;;;;;;7.67;6.87;;;;;;;23.65;53.60;100147.63;1767579;80;21543;-86
2022/06/10 04:50:07;;;;;;;7.83;6.40;;;;;;;23.61;53.70;100154.25;1768097;80;21066;-85
2022/06/10 04:52:43;;;;;;;7.40;6.35;;;;;;;23.57;53.89;100159.70;1736093;80;21215;-88
2022/06/10 04:55:17;;;;;;;9.30;6.40;;;;;;;23.53;53.99;100156.02;1742903;80;21054;-83
2022/06/10 04:58:01;;;;;;;8.10;5.72;;;;;;;23.53;54.14;100162.16;1761211;80;20984;-84
2022/06/10 05:00:34;;;;;;;7.45;5.80;;;;;;;23.49;54.36;100167.61;1753307;79;21598;-81
2022/06/10 05:03:09;;;;;;;;;;;;;;;;;;;;;
2022/06/10 05:05:33;;;;;;;5.80;5.20;;;;;;;23.47;54.55;100170.48;1723952;80;21393;-82
2022/06/10 05:08:00;;;;;;;7.25;5.42;;;;;;;23.49;54.64;100166.22;1716467;80;21633;-83
2022/06/10 05:10:31;;;;;;;7.03;5.60;;;;;;;23.51;54.66;100170.82;1752499;80;21095;-85
2022/06/10 05:13:16;;;;;;;15.43;5.65;;;;;;;23.52;54.75;100175.22;1758409;80;26656;-87
2022/06/10 05:16:26;;;;;;;14.53;5.53;;;;;;;23.55;54.84;100179.28;1760059;79;21957;-82
2022/06/10 05:19:46;;;;;;;6.80;5.28;;;;;;;23.54;54.97;100179.86;1735667;80;21056;-86
2022/06/10 05:23:19;;;;;;;6.42;5.17;;;;;;;23.61;55.11;100187.00;1617926;84;21068;-89
2022/06/10 05:25:57;;;;;;;10.15;5.15;;;;;;;23.66;55.07;100188.14;1672537;83;21205;-88
2022/06/10 05:28:30;;;;;;;9.70;5.35;;;;;;;23.68;55.07;100201.66;1665481;83;21139;-89
2022/06/10 05:30:56;;;;;;;10.32;5.05;;;;;;;23.68;55.12;100207.20;1690697;83;21810;-92
2022/06/10 05:34:44;;;;;;;7.12;4.65;;;;;;;23.71;55.21;100217.63;1672730;83;23778;-88
2022/06/10 05:36:03;;;;;;;8.53;5.17;;;;;;;23.72;55.28;100212.28;1698979;83;21238;-84
2022/06/10 05:38:34;;;;;;;7.47;4.67;;;;;;;23.72;55.31;100217.84;1694908;82;21020;-90
2022/06/10 05:42:04;;;;;;;10.70;4.67;;;;;;;23.68;55.28;100214.96;1725424;81;21030;-90
2022/06/10 05:43:36;;;;;;;6.83;4.47;;;;;;;23.66;55.28;100217.30;1742893;80;21103;-85
2022/06/10 05:46:08;;;;;;;9.45;4.65;;;;;;;23.66;55.29;100215.91;1753946;80;20982;-85
2022/06/10 05:48:42;;;;;;;8.50;4.62;;;;;;;23.66;55.36;100211.75;1745649;80;21161;-86
2022/06/10 05:51:18;;;;;;;10.20;4.60;;;;;;;23.67;55.36;100211.17;1761311;80;20979;-86
2022/06/10 05:53:47;;;;;;;9.88;4.58;;;;;;;23.68;55.40;100216.93;1742728;80;21075;-90
2022/06/10 05:56:28;;;;;;;14.10;5.05;;;;;;;23.67;55.41;100215.34;1744822;80;21046;-87
2022/06/10 05:59:02;;;;;;;6.17;4.70;;;;;;;23.68;55.46;100228.64;1719030;80;20969;-89
2022/06/10 06:01:29;;;;;;;7.00;4.25;;;;;;;23.70;55.56;100221.56;1761145;80;21122;-89
2022/06/10 06:04:00;;;;;;;6.62;4.60;;;;;;;23.69;55.57;100226.88;1753574;80;21042;-88
2022/06/10 06:06:26;;;;;;;;;;;;;;;23.71;55.59;100225.16;1764148;80;21942;-88
2022/06/10 06:08:59;;;;;;;9.43;3.83;;;;;;;23.71;55.51;100226.55;1751442;79;20232;-92
2022/06/10 06:11:27;;;;;;;7.65;3.58;;;;;;;23.69;55.54;100239.38;1751708;80;22169;-88
2022/06/10 06:13:59;;;;;;;8.35;3.98;;;;;;;23.64;55.49;100237.66;1744045;80;21071;-87
2022/06/10 06:16:26;;;;;;;7.22;3.83;;;;;;;23.63;55.61;100240.81;1735592;80;21308;-84
2022/06/10 06:19:06;;;;;;;4.37;3.35;;;;;;;23.62;55.50;100236.41;1751765;80;21147;-88
2022/06/10 06:22:08;;;;;;;;;;;;;;;;;;;;;
2022/06/10 06:24:40;;;;;;;6.37;4.05;;;;;;;23.57;55.36;100233.87;1667396;82;21059;-86
2022/06/10 06:27:23;;;;;;;6.92;3.30;;;;;;;23.51;55.32;100234.69;1660227;83;21139;-87
2022/06/10 06:30:32;;;;;;;;;;;;;;;;;;;;;
2022/06/10 06:33:18;;;;;;;6.00;3.37;;;;;;;23.54;55.44;100231.23;1668789;84;21657;-83
2022/06/10 06:35:53;;;;;;;6.78;3.22;;;;;;;23.56;55.40;100231.67;1747628;79;22649;-87
2022/06/10 06:38:28;;;;;;;4.37;3.15;;;;;;;23.59;55.25;100230.95;1745189;80;21059;-87
2022/06/10 06:41:09;;;;;;;6.00;3.00;;;;;;;23.62;55.23;100229.46;1754455;79;21159;-87
2022/06/10 06:43:43;;;;;;;7.08;3.17;;;;;;;23.64;55.21;100236.27;1755625;80;22109;-86
2022/06/10 06:46:17;;;;;;;5.05;3.30;;;;;;;23.69;55.18;100240.77;1763027;77;21301;-85
2022/06/10 06:51:41;;;;;;;4.80;2.85;;;;;;;23.76;55.08;100240.19;1711725;82;21055;-87
2022/06/10 06:54:24;;;;;;;4.30;3.00;;;;;;;23.78;54.99;100233.69;1723161;80;21052;-85
2022/06/10 06:56:53;;;;;;;5.85;3.00;;;;;;;23.80;54.86;100222.47;1759145;79;21206;-83
2022/06/10 06:59:32;;;;;;;5.47;2.67;;;;;;;23.82;54.70;100227.07;1709820;81;21101;-84
2022/06/10 07:01:58;;;;;;;7.03;2.42;;;;;;;23.81;54.54;100226.02;1753269;80;21806;-89
2022/06/10 07:04:27;;;;;;;6.83;2.65;;;;;;;23.80;54.34;100231.38;1753993;81;21061;-86
2022/06/10 07:07:00;;;;;;;4.70;2.67;;;;;;;23.80;54.26;100225.81;1737538;81;21544;-84
2022/06/10 07:09:29;;;;;;;4.08;2.10;;;;;;;23.84;54.30;100230.89;1737976;81;21523;-89
2022/06/10 07:11:57;;;;;;;4.00;2.40;;;;;;;23.83;54.30;100232.86;1705429;83;21055;-86
2022/06/10 07:14:24;;;;;;;7.55;2.52;;;;;;;23.84;54.27;100246.17;1693499;83;21515;-86
2022/06/10 07:16:51;;;;;;;8.98;2.30;;;;;;;23.83;54.26;100241.20;1748462;80;21104;-84
2022/06/10 07:19:19;;;;;;;3.10;2.10;;;;;;;23.83;54.23;100245.94;1738650;80;21054;-88
2022/06/10 07:21:46;;;;;;;3.35;2.20;;;;;;;23.78;54.17;100240.05;1752750;80;21062;-89
2022/06/10 07:24:25;;;;;;;5.97;2.40;;;;;;;23.75;54.17;100235.20;1756892;79;21064;-90
2022/06/10 07:26:51;;;;;;;3.85;2.20;;;;;;;23.78;54.23;100238.66;1747363;80;21593;-87
2022/06/10 07:29:18;;;;;;;5.70;2.30;;;;;;;23.80;54.23;100230.80;1744702;80;21552;-87
2022/06/10 07:31:46;;;;;;;4.62;2.42;;;;;;;23.85;54.21;100241.63;1724674;81;21066;-88
2022/06/10 07:34:15;;;;;;;3.17;2.50;;;;;;;23.89;54.21;100234.20;1757141;80;21080;-87
2022/06/10 07:36:41;;;;;;;4.78;2.15;;;;;;;23.95;54.11;100233.39;1715831;81;21073;-87
2022/06/10 07:39:13;;;;;;;5.85;2.50;;;;;;;23.98;54.05;100235.45;1758244;80;21265;-88
2022/06/10 07:44:36;;;;;;;;;;;;;;;24.07;54.03;100241.66;1751705;80;21578;-85
2022/06/10 07:47:07;;;;;;;3.80;2.77;;;;;;;24.09;54.03;100235.99;1742041;80;20165;-85
2022/06/10 07:49:54;;;;;;;4.30;2.60;;;;;;;24.11;53.93;100241.18;1738006;80;21732;-87
2022/06/10 07:52:41;;;;;;;5.67;2.83;;;;;;;24.13;53.89;100238.86;1741136;80;21837;-86
2022/06/10 07:55:01;;;;;;;4.08;3.12;;;;;;;24.16;53.86;100240.95;1696515;80;21788;-87
2022/06/10 07:57:27;;;;;;;6.20;2.60;;;;;;;24.19;53.82;100242.23;1737080;80;21444;-86
2022/06/10 07:59:54;;;;;;;4.17;2.35;;;;;;;24.19;53.77;100233.29;1740670;80;21112;-87
2022/06/10 08:02:21;;;;;;;7.65;2.70;;;;;;;24.21;53.70;100244.06;1723258;82;21460;-86
2022/06/10 08:04:48;;;;;;;5.75;2.55;;;;;;;24.22;53.68;100236.77;1736462;82;21139;-88
2022/06/10 08:07:14;;;;;;;4.05;2.60;;;;;;;24.25;53.69;100241.61;1736092;80;21020;-86
2022/06/10 08:09:41;;;;;;;6.08;2.90;;;;;;;24.27;53.70;100241.27;1736140;80;21562;-86
2022/06/10 08:12:08;;;;;;;7.70;2.95;;;;;;;24.27;53.73;100231.53;1719145;82;21040;-85
2022/06/10 08:14:34;;;;;;;4.20;3.10;;;;;;;24.28;53.71;100238.11;1723961;82;21533;-87
2022/06/10 08:17:04;;;;;;;4.12;2.83;;;;;;;24.29;53.69;100238.92;1732762;80;21517;-86
2022/06/10 08:19:29;;;;;;;4.30;3.02;;;;;;;24.29;53.68;100241.70;1749806;80;21534;-85
2022/06/10 08:24:40;;;;;;;3.52;2.80;;;;;;;24.31;53.60;100251.31;1732360;82;21098;-87
2022/06/10 08:27:06;;;;;;;4.97;2.75;;;;;;;24.32;53.56;100245.15;1738860;82;21520;-84
2022/06/10 08:29:33;;;;;;;3.67;2.92;;;;;;;24.32;53.55;100251.52;1742285;82;22167;-85
2022/06/10 08:31:59;;;;;;;4.90;2.33;;;;;;;24.33;53.51;100246.77;1742643;80;21068;-86
2022/06/10 08:34:25;;;;;;;6.83;3.00;;;;;;;24.35;53.47;100248.62;1737559;80;21638;-85
2022/06/10 08:36:52;;;;;;;7.53;2.80;;;;;;;24.35;53.44;100247.23;1742669;80;21120;-85
2022/06/10 08:39:22;;;;;;;5.90;2.55;;;;;;;24.36;53.42;100251.03;1768879;80;21195;-87
2022/06/10 08:42:07;;;;;;;6.22;2.87;;;;;;;24.37;53.39;100256.83;1756978;80;22030;-87
2022/06/10 08:44:49;;;;;;;4.62;2.58;;;;;;;24.40;53.34;100258.11;1741064;80;21083;-85
2022/06/10 08:47:35;;;;;;;10.95;2.83;;;;;;;24.39;53.27;100248.95;1741388;82;21742;-85
2022/06/10 08:50:28;;;;;;;3.60;2.55;;;;;;;24.39;53.21;100250.92;1719035;81;21085;-86
2022/06/10 08:53:07;;;;;;;4.58;2.85;;;;;;;24.40;53.19;100248.38;1716829;82;21132;-86
2022/06/10 08:56:07;;;;;;;7.80;2.60;;;;;;;24.39;53.14;100254.52;1710759;82;21955;-85
2022/06/10 08:58:51;;;;;;;5.35;2.87;;;;;;;24.40;53.12;100254.72;1705862;82;21081;-84
2022/06/10 09:01:20;;;;;;;5.85;2.90;;;;;;;24.41;53.04;100259.12;1683201;83;21653;-84
2022/06/10 09:04:17;;;;;;;6.17;2.67;;;;;;;24.40;52.93;100264.45;1680366;83;21096;-85
2022/06/10 09:06:51;;;;;;;4.45;2.75;;;;;;;24.41;52.80;100262.48;1678165;83;21145;-87
2022/06/10 09:09:19;;;;;;;3.65;2.60;;;;;;;24.40;52.70;100258.11;1693629;82;21619;-85
2022/06/10 09:12:03;;;;;;;6.50;3.08;;;;;;;24.41;52.66;100259.12;1692153;82;21075;-85
2022/06/10 09:14:30;;;;;;;4.03;2.30;;;;;;;24.43;52.62;100262.37;1697601;82;21047;-85
2022/06/10 09:17:16;;;;;;;4.95;2.40;;;;;;;24.43;52.58;100259.59;1663791;83;21029;-85
2022/06/10 09:20:05;;;;;;;3.40;2.37;;;;;;;24.46;52.51;100256.66;1681026;83;21063;-85
2022/06/10 09:22:57;;;;;;;4.30;2.62;;;;;;;24.45;52.49;100248.90;1705917;82;21745;-85
2022/06/10 09:25:32;;;;;;;6.00;2.40;;;;;;;24.46;52.44;100249.13;1719770;82;21077;-85
2022/06/10 09:27:59;;;;;;;5.28;2.77;;;;;;;24.46;52.40;100247.74;1712775;82;21106;-86
2022/06/10 09:30:34;;;;;;;3.55;2.55;;;;;;;24.48;52.35;100250.17;1711188;82;22062;-86
2022/06/10 09:33:15;;;;;;;4.10;2.37;;;;;;;24.49;52.31;100255.36;1713910;81;21090;-86
2022/06/10 09:35:59;;;;;;;6.20;2.52;;;;;;;24.49;52.24;100255.94;1705783;82;21591;-85
2022/06/10 09:38:39;;;;;;;3.02;2.45;;;;;;;24.49;52.23;100256.75;1706317;82;21604;-87
2022/06/10 09:41:28;;;;;;;4.58;2.87;;;;;;;24.49;52.27;100255.94;1713247;81;21024;-84
2022/06/10 09:44:23;;;;;;;6.28;2.85;;;;;;;24.49;52.36;100259.53;1707021;82;21113;-86
2022/06/10 09:46:58;;;;;;;6.20;2.83;;;;;;;24.46;52.53;100253.88;1705713;82;21105;-85
2022/06/10 09:49:45;;;;;;;2.60;2.40;;;;;;;24.45;52.59;100257.82;1705924;82;21058;-86
2022/06/10 09:52:40;;;;;;;5.47;2.98;;;;;;;24.40;52.69;100260.89;1726541;81;21116;-87
2022/06/10 09:55:44;;;;;;;5.45;2.80;;;;;;;24.35;52.76;100259.17;1693640;82;21055;-86
2022/06/10 09:58:35;;;;;;;4.85;2.80;;;;;;;24.36;52.80;100257.17;1730231;81;21129;-85
2022/06/10 10:01:19;;;;;;;10.82;3.30;;;;;;;24.34;52.83;100253.95;1731491;80;21069;-84
2022/06/10 10:04:09;;;;;;;4.83;2.47;;;;;;;24.36;52.83;100262.73;1721017;82;21320;-85
2022/06/10 10:06:47;;;;;;;3.52;2.65;;;;;;;24.37;52.86;100260.19;1685923;83;21565;-85
2022/06/10 10:09:36;;;;;;;4.80;2.50;;;;;;;24.36;52.84;100256.59;1719425;82;21081;-86
2022/06/10 10:12:17;;;;;;;3.52;2.62;;;;;;;24.36;52.88;100255.78;1721037;82;21077;-86
2022/06/10 10:15:06;;;;;;;5.60;2.70;;;;;;;24.37;52.95;100260.19;1682056;83;21098;-86
2022/06/10 10:17:53;;;;;;;4.30;2.50;;;;;;;24.38;53.04;100259.84;1720490;81;21662;-85
2022/06/10 10:20:47;;;;;;;3.60;2.60;;;;;;;24.39;53.11;100259.27;1718396;83;21072;-86
2022/06/10 10:23:33;;;;;;;5.47;2.27;;;;;;;24.40;53.17;100268.62;1720036;81;21133;-85
2022/06/10 10:26:02;;;;;;;4.30;2.50;;;;;;;24.41;53.20;100267.46;1691020;83;21132;-88
2022/06/10 10:28:35;;;;;;;3.50;2.40;;;;;;;24.44;53.18;100260.40;1703094;81;21691;-88
2022/06/10 10:31:24;;;;;;;3.83;3.00;;;;;;;24.44;53.20;100258.40;1682860;83;21615;-89
2022/06/10 10:33:51;;;;;;;3.02;2.20;;;;;;;24.45;53.18;100260.59;1672025;83;21146;-87
2022/06/10 10:36:25;;;;;;;4.67;2.50;;;;;;;24.46;53.17;100255.27;1694849;83;21137;-87
2022/06/10 10:38:52;;;;;;;5.45;2.15;;;;;;;24.48;53.18;100262.11;1685528;83;21061;-89
2022/06/10 10:41:27;;;;;;;5.50;2.55;;;;;;;24.49;53.16;100255.94;1684825;83;21088;-88
2022/06/10 10:44:00;;;;;;;3.45;2.27;;;;;;;24.51;53.18;100253.63;1719290;81;21565;-89
2022/06/10 10:46:45;;;;;;;5.55;2.37;;;;;;;24.51;53.12;100257.22;1685738;83;21064;-89
2022/06/10 10:49:25;;;;;;;4.60;2.17;;;;;;;24.53;53.07;100255.45;1712079;81;21192;-89
2022/06/10 10:51:51;;;;;;;;;;;;;;;24.52;53.00;100256.06;1719732;82;21093;-87
2022/06/10 10:54:31;;;;;;;4.05;2.22;;;;;;;24.53;52.94;100252.67;1717023;81;20205;-88
2022/06/10 10:56:58;;;;;;;15.43;2.95;;;;;;;24.53;52.91;100244.33;1699614;83;21159;-89
2022/06/10 10:59:32;;;;;;;5.72;2.85;;;;;;;24.52;52.86;100246.91;1727182;81;20982;-90
2022/06/10 11:01:59;;;;;;;5.28;2.50;;;;;;;24.52;52.82;100246.33;1720903;82;21141;-88
2022/06/10 11:04:38;;;;;;;5.12;2.30;;;;;;;24.53;52.81;100242.94;1718825;82;21519;-92
2022/06/10 11:07:18;;;;;;;4.08;2.72;;;;;;;24.52;52.79;100238.56;1748120;82;21059;-90
2022/06/10 11:09:59;;;;;;;5.35;2.33;;;;;;;24.52;52.76;100241.34;1727477;80;21172;-89
2022/06/10 11:12:27;;;;;;;;;;;;;;;24.51;52.72;100243.31;1723524;81;21109;-89
2022/06/10 11:15:02;;;;;;;2.70;2.27;;;;;;;24.49;52.64;100242.03;1721885;82;20172;-90
2022/06/10 11:17:28;;;;;;;6.87;2.72;;;;;;;24.48;52.58;100237.66;1717078;81;21117;-86
2022/06/10 11:19:59;;;;;;;3.70;2.58;;;;;;;24.47;52.49;100230.48;1712022;81;21114;-89
2022/06/10 11:22:35;;;;;;;4.47;2.35;;;;;;;24.47;52.42;100227.12;1749573;81;21569;-90
2022/06/10 11:25:19;;;;;;;4.67;2.40;;;;;;;24.46;52.36;100231.05;1713138;83;21092;-89
2022/06/10 11:27:39;;;;;;;3.87;2.52;;;;;;;24.48;52.34;100227.93;1690142;83;21112;-91
2022/06/10 11:30:24;;;;;;;3.87;2.47;;;;;;;24.49;52.34;100226.74;1712917;81;21080;-89
2022/06/10 11:32:59;;;;;;;5.97;2.37;;;;;;;24.48;52.29;100230.13;1725873;81;21093;-89
2022/06/10 11:35:39;;;;;;;3.40;2.47;;;;;;;24.49;52.28;100226.16;1736222;81;21920;-89
2022/06/10 11:38:24;;;;;;;7.03;2.90;;;;;;;24.50;52.25;100223.61;1716241;82;21040;-91
2022/06/10 11:40:54;;;;;;;4.80;2.42;;;;;;;24.52;52.22;100219.91;1717898;82;21059;-89
2022/06/10 11:43:39;;;;;;;3.10;2.33;;;;;;;24.54;52.26;100226.48;1740862;82;21132;-90
2022/06/10 11:46:16;;;;;;;3.42;2.87;;;;;;;24.56;52.25;100229.73;1718894;82;21777;-91
2022/06/10 11:49:18;;;;;;;5.55;2.87;;;;;;;24.57;52.24;100225.75;1722757;80;21217;-91
2022/06/10 11:51:50;;;;;;;4.10;2.90;;;;;;;24.60;52.23;100230.63;1718885;82;21151;-90
2022/06/10 11:54:40;;;;;;;7.10;3.20;;;;;;;24.61;52.28;100218.92;1675900;84;34923;-89
2022/06/10 12:00:38;;;;;;;5.53;2.55;;;;;;;24.62;52.33;100214.95;1698198;82;22327;-89
2022/06/10 12:03:44;;;;;;;3.90;2.50;;;;;;;24.61;52.25;100211.97;1696111;83;21101;-89
2022/06/10 12:06:31;;;;;;;7.25;2.70;;;;;;;24.60;52.15;100198.64;1716321;81;21112;-89
2022/06/10 12:09:29;;;;;;;4.97;3.15;;;;;;;24.61;52.10;100201.65;1723497;82;21058;-89
2022/06/10 12:12:25;;;;;;;5.45;2.90;;;;;;;24.61;52.07;100204.43;1734143;82;21133;-89
2022/06/10 12:14:54;;;;;;;4.10;2.67;;;;;;;24.62;52.08;100201.04;1724654;82;21045;-88
2022/06/10 12:17:39;;;;;;;5.45;2.55;;;;;;;24.63;52.06;100202.66;1701800;81;21891;-88
2022/06/10 12:20:25;;;;;;;3.42;2.42;;;;;;;24.63;52.00;100204.86;1727071;82;21066;-88
2022/06/10 12:23:00;;;;;;;4.15;2.30;;;;;;;24.64;51.94;100209.84;1718484;83;21088;-88
2022/06/10 12:25:32;;;;;;;6.22;2.40;;;;;;;24.65;51.91;100205.91;1725300;82;21516;-88
2022/06/10 12:28:18;;;;;;;3.25;2.37;;;;;;;24.64;51.91;100200.11;1719671;81;21044;-88
2022/06/10 12:30:53;;;;;;;4.53;2.27;;;;;;;24.65;51.91;100202.55;1682470;82;21722;-89
2022/06/10 12:33:24;;;;;;;4.50;2.05;;;;;;;24.66;51.88;100202.75;1739530;82;21125;-90